• Join FlightAware (Why Join?)
  • Login
  • US Flag 
05:25AM EDT


 

Airport Tracker/Info


-or-


 

Live Flight TrackerFlight Track Log ✈ UAL850 ✈ 26-Apr-2013 ✈ ZBAA / PEK - KORD

Flight Track Log - Related Links

Times and Time Zones

All times are in EDT time to prevent confusion due to time zone crossing. See the UAL850 flight status page for this flight to view local times or setup timezone preferences in your user account.

Time Position Orientation Groundspeed Altitude Reporting Facility
EDT Latitude Longitude Course Direction KTS MPH feet Rate Location/Type
04:54AM 40.3987 116.9380 40° Northeast  Level FlightAware Approximate
04:55AM 40.5038 117.0555 40° Northeast  Level FlightAware Approximate
04:56AM 40.6088 117.1734 40° Northeast  Level FlightAware Approximate
04:57AM 40.7136 117.2917 41° Northeast  Level FlightAware Approximate
04:58AM 40.8183 117.4104 41° Northeast  Level FlightAware Approximate
04:59AM 40.9229 117.5294 41° Northeast  Level FlightAware Approximate
05:00AM 41.0274 117.6488 41° Northeast  Level FlightAware Approximate
05:01AM 41.1317 117.7686 41° Northeast  Level FlightAware Approximate
05:02AM 41.2359 117.8888 41° Northeast  Level FlightAware Approximate
05:03AM 41.3400 118.0093 41° Northeast  Level FlightAware Approximate
05:04AM 41.4440 118.1303 41° Northeast  Level FlightAware Approximate
05:05AM 41.5478 118.2516 41° Northeast  Level FlightAware Approximate
05:06AM 41.6516 118.3733 41° Northeast  Level FlightAware Approximate
05:07AM 41.7470 118.4858 41° Northeast  Level FlightAware Approximate
05:08AM 41.8504 118.6082 41° Northeast  Level FlightAware Approximate
05:09AM 41.9532 118.7304 41° Northeast  Level FlightAware Approximate
05:10AM 42.0558 118.8530 42° Northeast  Level FlightAware Approximate
05:11AM 42.1583 118.9760 42° Northeast  Level FlightAware Approximate
05:12AM 42.2607 119.0993 42° Northeast  Level FlightAware Approximate
05:13AM 42.3629 119.2231 42° Northeast  Level FlightAware Approximate
05:14AM 42.4650 119.3473 42° Northeast  Level FlightAware Approximate
05:15AM 42.5670 119.4718 42° Northeast  Level FlightAware Approximate
05:16AM 42.6688 119.5968 42° Northeast  Level FlightAware Approximate
05:17AM 42.7705 119.7222 42° Northeast  Level FlightAware Approximate
05:18AM 42.8721 119.8481 42° Northeast  Level FlightAware Approximate
05:19AM 42.9735 119.9743 42° Northeast  Level FlightAware Approximate
05:20AM 43.0748 120.1009 42° Northeast  Level FlightAware Approximate
05:21AM 43.1759 120.2280 42° Northeast  Level FlightAware Approximate
05:22AM 43.2769 120.3555 43° Northeast  Level FlightAware Approximate
05:23AM 43.3778 120.4834 43° Northeast  Level FlightAware Approximate
05:24AM 43.4785 120.6117 43° Northeast  Level FlightAware Approximate
05:25AM 43.5790 120.7404 43° Northeast  Level FlightAware Approximate
05:26AM 43.6795 120.8696 43° Northeast  Level FlightAware Approximate
05:27AM 43.7797 120.9993 43° Northeast  Level FlightAware Approximate
05:28AM 43.8799 121.1293 43° Northeast  Level FlightAware Approximate
05:29AM 43.9798 121.2598 43° Northeast  Level FlightAware Approximate
05:30AM 44.0797 121.3907 43° Northeast  Level FlightAware Approximate
05:31AM 44.1794 121.5221 43° Northeast  Level FlightAware Approximate
05:32AM 44.2789 121.6539 43° Northeast  Level FlightAware Approximate
05:33AM 44.3783 121.7862 44° Northeast  Level FlightAware Approximate
05:34AM 44.4775 121.9189 44° Northeast  Level FlightAware Approximate
05:35AM 44.5765 122.0521 44° Northeast  Level FlightAware Approximate
05:36AM 44.6755 122.1857 44° Northeast  Level FlightAware Approximate
05:37AM 44.7744 122.3200 44° Northeast  Level FlightAware Approximate
05:38AM 44.8731 122.4547 44° Northeast  Level FlightAware Approximate
05:39AM 44.9717 122.5899 44° Northeast  Level FlightAware Approximate
05:40AM 45.0701 122.7256 44° Northeast  Level FlightAware Approximate
05:41AM 45.1684 122.8617 44° Northeast  Level FlightAware Approximate
05:42AM 45.2665 122.9983 44° Northeast  Level FlightAware Approximate
05:43AM 45.3644 123.1353 44° Northeast  Level FlightAware Approximate
05:44AM 45.4622 123.2729 45° Northeast  Level FlightAware Approximate
05:45AM 45.5598 123.4109 45° Northeast  Level FlightAware Approximate
05:46AM 45.6572 123.5494 45° Northeast  Level FlightAware Approximate
05:47AM 45.7543 123.6882 45° Northeast  Level FlightAware Approximate
05:48AM 45.8513 123.8275 45° Northeast  Level FlightAware Approximate
05:49AM 45.9481 123.9672 45° Northeast  Level FlightAware Approximate
05:50AM 46.0447 124.1075 45° Northeast  Level FlightAware Approximate
05:51AM 46.1412 124.2482 45° Northeast  Level FlightAware Approximate
05:52AM 46.2374 124.3894 45° Northeast  Level FlightAware Approximate
05:53AM 46.3335 124.5311 45° Northeast  Level FlightAware Approximate
05:54AM 46.4295 124.6733 46° Northeast  Level FlightAware Approximate
05:55AM 46.5252 124.8161 46° Northeast  Level FlightAware Approximate
05:56AM 46.6208 124.9593 46° Northeast  Level FlightAware Approximate
05:57AM 46.7162 125.1030 46° Northeast  Level FlightAware Approximate
05:58AM 46.8115 125.2475 46° Northeast  Level FlightAware Approximate
05:59AM 46.9067 125.3924 46° Northeast  Level FlightAware Approximate
06:00AM 47.0017 125.5379 46° Northeast  Level FlightAware Approximate
06:01AM 47.0965 125.6839 46° Northeast  Level FlightAware Approximate
06:02AM 47.1912 125.8302 46° Northeast  Level FlightAware Approximate
06:03AM 47.2860 125.9767 46° Northeast  Level FlightAware Approximate
06:04AM 47.3806 126.1237 46° Northeast  Level FlightAware Approximate
06:05AM 47.4749 126.2711 47° Northeast  Level FlightAware Approximate
06:06AM 47.5690 126.4190 47° Northeast  Level FlightAware Approximate
06:07AM 47.6629 126.5675 47° Northeast  Level FlightAware Approximate
06:08AM 47.7566 126.7164 47° Northeast  Level FlightAware Approximate
06:09AM 47.8501 126.8659 47° Northeast  Level FlightAware Approximate
06:10AM 47.9434 127.0160 47° Northeast  Level FlightAware Approximate
06:11AM 48.0365 127.1666 47° Northeast  Level FlightAware Approximate
06:12AM 48.1294 127.3177 47° Northeast  Level FlightAware Approximate
06:13AM 48.2221 127.4694 47° Northeast  Level FlightAware Approximate
06:14AM 48.3147 127.6216 48° Northeast  Level FlightAware Approximate
06:15AM 48.4069 127.7742 48° Northeast  Level FlightAware Approximate
06:16AM 48.4989 127.9273 48° Northeast  Level FlightAware Approximate
06:17AM 48.5906 128.0810 48° Northeast  Level FlightAware Approximate
06:18AM 48.6822 128.2352 48° Northeast  Level FlightAware Approximate
06:19AM 48.7736 128.3900 48° Northeast  Level FlightAware Approximate
06:20AM 48.8648 128.5454 48° Northeast  Level FlightAware Approximate
06:21AM 48.9558 128.7015 48° Northeast  Level FlightAware Approximate
06:22AM 49.0467 128.8583 48° Northeast  Level FlightAware Approximate
06:23AM 49.1374 129.0155 49° Northeast  Level FlightAware Approximate
06:24AM 49.2278 129.1734 49° Northeast  Level FlightAware Approximate
06:25AM 49.3180 129.3319 49° Northeast  Level FlightAware Approximate
06:26AM 49.4081 129.4909 49° Northeast  Level FlightAware Approximate
06:27AM 49.4978 129.6505 49° Northeast  Level FlightAware Approximate
06:28AM 49.5874 129.8107 49° Northeast  Level FlightAware Approximate
06:29AM 49.6768 129.9715 49° Northeast  Level FlightAware Approximate
06:30AM 49.7648 130.1343 50° Northeast  Level FlightAware Approximate
06:31AM 49.8525 130.2979 50° Northeast  Level FlightAware Approximate
06:32AM 49.9399 130.4620 50° Northeast  Level FlightAware Approximate
06:33AM 50.0271 130.6267 50° Northeast  Level FlightAware Approximate
06:34AM 50.1141 130.7921 51° Northeast  Level FlightAware Approximate
06:35AM 50.2009 130.9580 51° Northeast  Level FlightAware Approximate
06:36AM 50.2874 131.1245 51° Northeast  Level FlightAware Approximate
06:37AM 50.3746 131.2905 51° Northeast  Level FlightAware Approximate
06:37AM 46.8360 130.4450 51° Northeast 495 570 33,100  Level FlightAware
06:38AM 50.4615 131.4572 51° Northeast  Level FlightAware Approximate
06:38AM 46.8750 130.5900 68° East 495 570 33,100  Level FlightAware
06:38AM 46.9140 130.7360 69° East 496 571 33,100  Level FlightAware
06:39AM 46.9440 130.8510 69° East 496 571 33,100  Level FlightAware
06:40AM 46.9740 130.9620 68° East 496 571 33,100  Level FlightAware
06:40AM 47.0050 131.0810 69° East 496 571 33,100  Level FlightAware
06:41AM 47.0420 131.2220 69° East 495 570 33,100  Level FlightAware
06:42AM 47.0770 131.3570 69° East 495 570 33,100  Level FlightAware
06:43AM 47.1170 131.5100 69° East 493 567 33,100  Level FlightAware
06:44AM 47.1650 131.6990 69° East 490 564 33,100  Level FlightAware
06:44AM 47.1970 131.8280 70° East 489 563 33,100 -120 Level FlightAware
06:45AM 47.2300 131.9550 69° East 490 564 33,000 -60 Descending FlightAware
06:46AM 47.2700 132.1140 70° East 490 564 33,000  Level FlightAware
06:47AM 47.3060 132.2570 70° East 489 563 33,000  Level FlightAware
06:47AM 47.3360 132.3830 71° East 488 562 33,000  Level FlightAware
06:48AM 47.3680 132.5110 70° East 488 562 33,000  Level FlightAware
06:49AM 47.4030 132.6550 70° East 486 559 33,000  Level FlightAware
06:50AM 47.4550 132.8680 70° East 486 559 33,000  Level FlightAware
06:51AM 47.4900 133.0120 70° East 485 558 33,000  Level FlightAware
06:51AM 47.5180 133.1280 70° East 485 558 33,000  Level FlightAware
06:52AM 47.5590 133.2980 70° East 484 557 33,000  Level FlightAware
06:53AM 47.5890 133.4270 71° East 483 556 33,000  Level FlightAware
06:53AM 47.6190 133.5540 71° East 483 556 33,000  Level FlightAware
06:54AM 47.6480 133.6790 71° East 483 556 33,000  Level FlightAware
06:55AM 47.6690 133.7710 71° East 482 555 33,000  Level FlightAware
06:56AM 47.7210 133.9940 71° East 481 554 33,000  Level FlightAware
06:56AM 47.7500 134.1200 71° East 482 555 33,000  Level FlightAware
06:57AM 47.7790 134.2490 71° East 481 554 33,000  Level FlightAware
06:58AM 47.8060 134.3680 71° East 481 554 33,000  Level FlightAware
06:59AM 47.8400 134.5160 71° East 481 554 33,000  Level FlightAware
06:59AM 47.8680 134.6220 68° East 478 550 33,000  Level FlightAware
07:00AM 47.9280 134.6980 40° Northeast 466 536 33,000  Level FlightAware
07:00AM 47.9950 134.7520 28° Northeast 467 537 33,000  Level FlightAware
07:01AM 48.0760 134.8170 28° Northeast 467 537 33,000  Level FlightAware
07:02AM 48.2080 134.9260 29° Northeast 467 537 33,000  Level FlightAware
07:02AM 48.2880 134.9930 29° Northeast 468 539 33,000  Level FlightAware
07:03AM 48.3730 135.0650 29° Northeast 467 537 33,000  Level FlightAware
07:04AM 48.4530 135.1330 29° Northeast 467 537 33,000  Level FlightAware
07:05AM 48.5360 135.2070 31° Northeast 469 540 33,000  Level FlightAware
07:05AM 48.5920 135.2780 40° Northeast 474 545 33,000  Level FlightAware
07:06AM 48.6630 135.3820 44° Northeast 475 547 33,000  Level FlightAware
07:07AM 48.7320 135.4850 45° Northeast 475 547 33,000  Level FlightAware
07:07AM 48.7940 135.5780 45° Northeast 475 547 33,000  Level FlightAware
07:08AM 48.8590 135.6740 44° Northeast 475 547 33,000  Level FlightAware
07:09AM 48.8910 135.7220 45° Northeast 474 545 33,000  Level FlightAware
07:10AM 48.9500 135.8110 45° Northeast 474 545 33,000  Level FlightAware
07:10AM 49.0060 135.8940 44° Northeast 473 544 33,000  Level FlightAware
07:11AM 49.0800 136.0070 45° Northeast 474 545 33,000  Level FlightAware
07:12AM 49.1450 136.1050 45° Northeast 473 544 33,000  Level FlightAware
07:13AM 49.2440 136.2570 45° Northeast 473 544 33,000  Level FlightAware
07:13AM 49.3050 136.3520 45° Northeast 473 544 33,000  Level FlightAware
07:14AM 49.3690 136.4510 45° Northeast 475 547 33,000  Level FlightAware
07:15AM 49.4380 136.5540 44° Northeast 474 545 33,000  Level FlightAware
07:15AM 49.5020 136.6270 37° Northeast 474 545 33,000  Level FlightAware
07:16AM 49.5910 136.7190 34° Northeast 477 549 33,000  Level FlightAware
07:17AM 49.6440 136.7720 33° Northeast 479 551 33,000  Level FlightAware
07:18AM 49.7300 136.8610 34° Northeast 480 552 33,000  Level FlightAware
07:18AM 49.7980 136.9300 33° Northeast 482 555 33,000  Level FlightAware
07:19AM 49.8680 137.0040 34° Northeast 484 557 33,000  Level FlightAware
07:20AM 49.9400 137.0790 34° Northeast 484 557 33,000  Level FlightAware
07:20AM 50.0030 137.1450 34° Northeast 486 559 33,000  Level FlightAware
07:21AM 50.1050 137.2520 34° Northeast 486 559 33,000  Level FlightAware
07:22AM 50.1790 137.3310 34° Northeast 486 559 33,000  Level FlightAware
07:23AM 50.2650 137.4230 34° Northeast 483 556 33,000  Level FlightAware
07:23AM 50.3190 137.4820 35° Northeast 483 556 33,000  Level FlightAware
07:24AM 50.3820 137.5500 35° Northeast 484 557 33,000  Level FlightAware
07:25AM 50.4600 137.6420 37° Northeast 486 559 33,000  Level FlightAware
07:25AM 50.5750 137.7830 38° Northeast 488 562 33,000  Level FlightAware
07:26AM 50.6460 137.8690 38° Northeast 487 560 33,000  Level FlightAware
07:27AM 50.7270 137.9680 38° Northeast 484 557 33,000  Level FlightAware
07:27AM 50.7960 138.0520 38° Northeast 483 556 33,000  Level FlightAware
07:28AM 50.8430 138.1090 37° Northeast 483 556 33,000  Level FlightAware
07:29AM 50.9040 138.1820 37° Northeast 483 556 33,000  Level FlightAware
07:29AM 50.9650 138.2540 37° Northeast 483 556 33,000  Level FlightAware
07:30AM 51.1010 138.3930 33° Northeast 484 557 33,000  Level FlightAware
07:31AM 51.1740 138.4690 33° Northeast 483 556 33,000  Level FlightAware
07:32AM 51.2380 138.5350 33° Northeast 483 556 33,000  Level FlightAware
07:33AM 51.3020 138.6010 33° Northeast 483 556 33,000  Level FlightAware
07:33AM 51.3650 138.6670 33° Northeast 483 556 33,000  Level FlightAware
07:34AM 51.4290 138.7330 33° Northeast 483 556 33,000  Level FlightAware
07:35AM 51.5090 138.8160 33° Northeast 483 556 33,000  Level FlightAware
07:35AM 51.5720 138.8830 33° Northeast 483 556 33,000  Level FlightAware
07:36AM 51.6360 138.9500 33° Northeast 483 556 33,000  Level FlightAware
07:37AM 51.7000 139.0160 33° Northeast 483 556 33,000  Level FlightAware
07:37AM 51.7640 139.0830 33° Northeast 483 556 33,000  Level FlightAware
07:38AM 51.8430 139.1670 33° Northeast 483 556 33,000  Level FlightAware
07:39AM 51.9070 139.2340 33° Northeast 483 556 33,000  Level FlightAware
07:40AM 51.9710 139.3010 33° Northeast 483 556 33,000  Level FlightAware
07:40AM 52.0340 139.3680 33° Northeast 483 556 33,000  Level FlightAware
07:43AM 52.2952 139.6567 34° Northeast  Level Estimated
07:44AM 52.4086 139.7832 34° Northeast  Level Estimated
07:45AM 52.5218 139.9105 34° Northeast  Level Estimated
07:46AM 52.6349 140.0383 34° Northeast  Level Estimated
07:47AM 52.7479 140.1669 35° Northeast  Level Estimated
07:48AM 52.8607 140.2961 35° Northeast  Level Estimated
07:49AM 52.9734 140.4260 35° Northeast  Level Estimated
07:50AM 53.0859 140.5566 35° Northeast  Level Estimated
07:51AM 53.1983 140.6878 35° Northeast  Level Estimated
07:52AM 53.3105 140.8197 35° Northeast  Level Estimated
07:53AM 53.4226 140.9524 35° Northeast  Level Estimated
07:54AM 53.5345 141.0857 35° Northeast  Level Estimated
07:55AM 53.6463 141.2198 35° Northeast  Level Estimated
07:56AM 53.7580 141.3545 35° Northeast  Level Estimated
07:57AM 53.8695 141.4900 36° Northeast  Level Estimated
07:58AM 53.9808 141.6262 36° Northeast  Level Estimated
07:59AM 54.0920 141.7631 36° Northeast  Level Estimated
08:00AM 54.2030 141.9007 36° Northeast  Level Estimated
08:01AM 54.3139 142.0391 36° Northeast  Level Estimated
08:02AM 54.4246 142.1783 36° Northeast  Level Estimated
08:03AM 54.5352 142.3182 36° Northeast  Level Estimated
08:04AM 54.6456 142.4588 36° Northeast  Level Estimated
08:05AM 54.7558 142.6003 36° Northeast  Level Estimated
08:06AM 54.8658 142.7425 37° Northeast  Level Estimated
08:07AM 54.9757 142.8855 37° Northeast  Level Estimated
08:08AM 55.0855 143.0292 37° Northeast  Level Estimated
08:09AM 55.1950 143.1738 37° Northeast  Level Estimated
08:10AM 55.3044 143.3191 37° Northeast  Level Estimated
08:11AM 55.4136 143.4653 37° Northeast  Level Estimated
08:12AM 55.5226 143.6122 37° Northeast  Level Estimated
08:13AM 55.6315 143.7600 37° Northeast  Level Estimated
08:14AM 55.7402 143.9086 38° Northeast  Level Estimated
08:15AM 55.8487 144.0580 38° Northeast  Level Estimated
08:16AM 55.9570 144.2083 38° Northeast  Level Estimated
08:17AM 56.0651 144.3594 38° Northeast  Level Estimated
08:18AM 56.1731 144.5114 38° Northeast  Level Estimated
08:19AM 56.2808 144.6642 38° Northeast  Level Estimated
08:20AM 56.3884 144.8179 38° Northeast  Level Estimated
08:21AM 56.4958 144.9724 38° Northeast  Level Estimated
08:22AM 56.6030 145.1278 39° Northeast  Level Estimated
08:23AM 56.7100 145.2841 39° Northeast  Level Estimated
08:24AM 56.8167 145.4413 39° Northeast  Level Estimated
08:25AM 56.9234 145.5994 39° Northeast  Level Estimated
08:26AM 57.0297 145.7584 39° Northeast  Level Estimated
08:27AM 57.1359 145.9183 39° Northeast  Level Estimated
08:28AM 57.2419 146.0791 39° Northeast  Level Estimated
08:29AM 57.3477 146.2409 39° Northeast  Level Estimated
08:30AM 57.4533 146.4036 40° Northeast  Level Estimated
08:31AM 57.5586 146.5672 40° Northeast  Level Estimated
08:32AM 57.6638 146.7318 40° Northeast  Level Estimated
08:33AM 57.7687 146.8973 40° Northeast  Level Estimated
08:34AM 57.8734 147.0638 40° Northeast  Level Estimated
08:35AM 57.9779 147.2313 40° Northeast  Level Estimated
08:36AM 58.0822 147.3998 40° Northeast  Level Estimated
08:37AM 58.1863 147.5692 41° Northeast  Level Estimated
08:38AM 58.2901 147.7396 41° Northeast  Level Estimated
08:39AM 58.3937 147.9111 41° Northeast  Level Estimated
08:40AM 58.4971 148.0835 41° Northeast  Level Estimated
08:41AM 58.6002 148.2569 41° Northeast  Level Estimated
08:42AM 58.7031 148.4314 41° Northeast  Level Estimated
08:43AM 58.8058 148.6069 41° Northeast  Level Estimated
08:44AM 58.9082 148.7835 42° Northeast  Level Estimated
08:45AM 59.0104 148.9611 42° Northeast  Level Estimated
08:46AM 59.1123 149.1398 42° Northeast  Level Estimated
08:47AM 59.2140 149.3195 42° Northeast  Level Estimated
08:48AM 59.3153 149.5000 42° Northeast  Level Estimated
08:49AM 59.4163 149.6816 42° Northeast  Level Estimated
08:50AM 59.5171 149.8643 43° Northeast  Level Estimated
08:51AM 59.6177 150.0481 43° Northeast  Level Estimated
08:52AM 59.7180 150.2330 43° Northeast  Level Estimated
08:53AM 59.8181 150.4193 43° Northeast  Level Estimated
08:54AM 59.9180 150.6067 43° Northeast  Level Estimated
08:55AM 60.0176 150.7952 43° Northeast  Level Estimated
08:56AM 60.1170 150.9849 44° Northeast  Level Estimated
08:57AM 60.2161 151.1757 44° Northeast  Level Estimated
08:58AM 60.3149 151.3677 44° Northeast  Level Estimated
08:59AM 60.4134 151.5608 44° Northeast  Level Estimated
09:00AM 60.5117 151.7551 44° Northeast  Level Estimated
09:01AM 60.6096 151.9506 44° Northeast  Level Estimated
09:02AM 60.7073 152.1473 45° Northeast  Level Estimated
09:03AM 60.8047 152.3451 45° Northeast  Level Estimated
09:04AM 60.9018 152.5442 45° Northeast  Level Estimated
09:05AM 60.9986 152.7445 45° Northeast  Level Estimated
09:06AM 61.0951 152.9460 45° Northeast  Level Estimated
09:07AM 61.1913 153.1487 45° Northeast  Level Estimated
09:08AM 61.2872 153.3527 46° Northeast  Level Estimated
09:09AM 61.3828 153.5580 46° Northeast  Level Estimated
09:10AM 61.4781 153.7644 46° Northeast  Level Estimated
09:11AM 61.5730 153.9722 46° Northeast  Level Estimated
09:12AM 61.6676 154.1812 46° Northeast  Level Estimated
09:13AM 61.7620 154.3915 46° Northeast  Level Estimated
09:14AM 61.8560 154.6031 47° Northeast  Level Estimated
09:15AM 61.9496 154.8160 47° Northeast  Level Estimated
09:16AM 62.0430 155.0302 47° Northeast  Level Estimated
09:17AM 62.1360 155.2458 47° Northeast  Level Estimated
09:18AM 62.2287 155.4626 47° Northeast  Level Estimated
09:19AM 62.3210 155.6808 48° Northeast  Level Estimated
09:20AM 62.4130 155.9003 48° Northeast  Level Estimated
09:21AM 62.5046 156.1212 48° Northeast  Level Estimated
09:22AM 62.5959 156.3434 48° Northeast  Level Estimated
09:23AM 62.6868 156.5670 48° Northeast  Level Estimated
09:24AM 62.7774 156.7920 49° Northeast  Level Estimated
09:25AM 62.8676 157.0184 49° Northeast  Level Estimated
09:26AM 62.9575 157.2461 49° Northeast  Level Estimated
09:27AM 63.0470 157.4753 49° Northeast  Level Estimated
09:28AM 63.1361 157.7058 49° Northeast  Level Estimated
09:29AM 63.2247 157.9375 50° Northeast  Level Estimated
09:30AM 63.3129 158.1706 50° Northeast  Level Estimated
09:31AM 63.4008 158.4051 50° Northeast  Level Estimated
09:32AM 63.4882 158.6410 50° Northeast  Level Estimated
09:33AM 63.5753 158.8784 50° Northeast  Level Estimated
09:34AM 63.6620 159.1172 51° Northeast  Level Estimated
09:35AM 63.7482 159.3575 51° Northeast  Level Estimated
09:36AM 63.8341 159.5993 51° Northeast  Level Estimated
09:37AM 63.9196 159.8426 51° Northeast  Level Estimated
09:38AM 64.0046 160.0873 52° Northeast  Level Estimated
09:39AM 64.0893 160.3335 52° Northeast  Level Estimated
09:40AM 64.1735 160.5812 52° Northeast  Level Estimated
09:41AM 64.2573 160.8305 52° Northeast  Level Estimated
09:42AM 64.3407 161.0812 52° Northeast  Level Estimated
09:43AM 64.4236 161.3335 53° Northeast  Level Estimated
09:44AM 64.5061 161.5872 53° Northeast  Level Estimated
09:45AM 64.5882 161.8426 53° Northeast  Level Estimated
09:46AM 64.6698 162.0994 53° Northeast  Level Estimated
09:47AM 64.7510 162.3578 54° Northeast  Level Estimated
09:48AM 64.8317 162.6178 54° Northeast  Level Estimated
09:49AM 64.9120 162.8793 54° Northeast  Level Estimated
09:50AM 64.9918 163.1424 54° Northeast  Level Estimated
09:51AM 65.0712 163.4070 54° Northeast  Level Estimated
09:52AM 65.1500 163.6733 55° Northeast  Level Estimated
09:53AM 65.2284 163.9411 55° Northeast  Level Estimated
09:54AM 65.3064 164.2105 55° Northeast  Level Estimated
09:55AM 65.3838 164.4815 55° Northeast  Level Estimated
09:56AM 65.4607 164.7541 56° Northeast  Level Estimated
09:57AM 65.5372 165.0283 56° Northeast  Level Estimated
09:58AM 65.6132 165.3041 56° Northeast  Level Estimated
09:59AM 65.6886 165.5815 56° Northeast  Level Estimated
10:00AM 65.7636 165.8609 57° Northeast  Level Estimated
10:01AM 65.8382 166.1420 57° Northeast  Level Estimated
10:02AM 65.9122 166.4246 57° Northeast  Level Estimated
10:03AM 65.9857 166.7090 57° Northeast  Level Estimated
10:03AM 65.1820 170.5510 58° Northeast 576 663 35,000  Level FlightAware
10:04AM 66.0587 166.9949 58° Northeast  Level Estimated
10:04AM 65.2320 170.8080 65° Northeast 577 664 35,000  Level FlightAware
10:04AM 65.2750 171.0380 66° East 577 664 35,000  Level FlightAware
10:05AM 65.3230 171.2910 65° Northeast 578 665 35,000  Level FlightAware
10:06AM 65.3990 171.7090 66° East 579 666 35,000  Level FlightAware
10:07AM 65.4370 171.9210 67° East 580 667 35,000  Level FlightAware
10:08AM 65.4800 172.2200 71° East 581 669 35,000  Level FlightAware
10:08AM 65.5000 172.3740 73° East 580 667 35,000  Level FlightAware
10:09AM 65.5330 172.6440 73° East 580 667 35,000  Level FlightAware
10:10AM 65.5790 173.0170 73° East 582 670 35,000  Level FlightAware
10:10AM 65.6040 173.2230 74° East 583 671 35,000  Level FlightAware
10:11AM 65.6420 173.5430 74° East 583 671 35,000  Level FlightAware
10:12AM 65.6720 173.8010 74° East 582 670 35,000  Level FlightAware
10:13AM 65.7030 174.0810 75° East 583 671 35,000  Level FlightAware
10:13AM 65.7420 174.4300 75° East 584 672 35,000  Level FlightAware
10:14AM 65.7690 174.6780 75° East 585 673 35,000  Level FlightAware
10:15AM 65.7930 174.9020 75° East 586 674 35,000  Level FlightAware
10:15AM 65.8240 175.1910 75° East 585 673 35,000  Level FlightAware
10:16AM 65.8530 175.4720 76° East 584 672 35,000  Level FlightAware
10:17AM 65.8830 175.7640 76° East 585 673 35,000  Level FlightAware
10:18AM 65.9050 175.9880 76° East 586 674 35,000  Level FlightAware
10:18AM 65.9310 176.2540 76° East 585 673 35,000  Level FlightAware
10:19AM 65.9650 176.6170 77° East 586 674 35,000  Level FlightAware
10:20AM 65.9930 176.9240 77° East 587 676 35,000  Level FlightAware
10:21AM 66.0200 177.2180 77° East 587 676 35,000  Level FlightAware
10:21AM 66.0420 177.4690 78° East 589 678 35,000  Level FlightAware
10:22AM 66.0630 177.7190 78° East 588 677 35,000  Level FlightAware
10:23AM 66.0890 178.0200 78° East 589 678 35,000  Level FlightAware
10:23AM 66.1110 178.2900 79° East 589 678 35,000  Level FlightAware
10:24AM 66.1320 178.5570 79° East 590 679 35,000  Level FlightAware
10:25AM 66.1560 178.8660 79° East 590 679 35,000  Level FlightAware
10:25AM 66.1750 179.1120 79° East 592 681 35,000  Level FlightAware
10:26AM 66.1990 179.4300 79° East 592 681 35,000  Level FlightAware
10:27AM 66.2170 179.6790 80° East 593 682 35,000  Level FlightAware
10:28AM 66.2340 179.9260 80° East 593 682 35,000  Level FlightAware
10:29AM 66.2670 -179.5870 80° East 596 686 35,000  Level FlightAware
10:30AM 66.2880 -179.2770 80° East 597 687 35,000  Level FlightAware
10:30AM 66.3030 -179.0300 81° East 598 688 35,000  Level FlightAware
10:31AM 66.3230 -178.7140 81° East 598 688 35,000  Level FlightAware
10:32AM 66.3400 -178.4280 81° East 597 687 35,000  Level FlightAware
10:32AM 66.3610 -178.0640 82° East 595 685 35,000  Level FlightAware
10:33AM 66.3810 -177.6870 82° East 595 685 35,000  Level FlightAware
10:34AM 66.4030 -177.2800 82° East 594 684 35,000  Level FlightAware
10:35AM 66.4230 -176.8750 83° East 594 684 35,000  Level FlightAware
10:36AM 66.4340 -176.6540 83° East 594 684 35,000  Level FlightAware
10:37AM 66.4490 -176.3100 84° East 595 685 35,000  Level FlightAware
10:37AM 66.4590 -176.0850 84° East 594 684 35,000  Level FlightAware
10:38AM 66.4740 -175.7390 84° East 594 684 35,000  Level FlightAware
10:39AM 66.4850 -175.4690 84° East 594 684 35,000  Level FlightAware
10:40AM 66.4990 -175.0820 85° East 594 684 35,000  Level FlightAware
10:40AM 66.5080 -174.8320 85° East 594 684 35,000  Level FlightAware
10:41AM 66.5190 -174.5060 85° East 594 684 35,000  Level FlightAware
10:42AM 66.5300 -174.1880 85° East 594 684 35,000  Level FlightAware
10:43AM 66.5380 -173.9540 85° East 594 684 35,000  Level FlightAware
10:43AM 66.5460 -173.7200 85° East 594 684 35,000  Level FlightAware
10:44AM 66.5540 -173.4860 85° East 594 684 35,000  Level FlightAware
10:45AM 66.5640 -173.1940 85° East 594 684 35,000  Level FlightAware
10:46AM 66.5720 -172.9600 85° East 594 684 35,000  Level FlightAware
10:46AM 66.5800 -172.7260 85° East 594 684 35,000  Level FlightAware
10:47AM 66.5880 -172.4920 85° East 594 684 35,000  Level FlightAware
10:48AM 66.5960 -172.2570 85° East 594 684 35,000  Level FlightAware
10:48AM 66.6070 -171.9640 84° East 594 684 35,000  Level FlightAware
10:49AM 66.6150 -171.7300 85° East 594 684 35,000  Level FlightAware
10:50AM 66.6230 -171.4950 85° East 594 684 35,000  Level FlightAware
10:51AM 66.6330 -171.2020 85° East 594 684 35,000  Level FlightAware
10:51AM 66.6410 -170.9670 85° East 594 684 35,000  Level FlightAware
10:54AM 66.6347 -170.2001 91° East  Level FlightAware Approximate
10:55AM 66.6306 -169.8543 92° East  Level FlightAware Approximate
10:56AM 66.6258 -169.5086 92° East  Level FlightAware Approximate
10:57AM 66.6202 -169.1631 92° East  Level FlightAware Approximate
10:57AM 66.6667 -168.2333 77° East 550 633 35,000  Level Anchorage Center
10:58AM 66.6311 -168.8195 76° East  Level FlightAware Approximate
10:58AM 66.7000 -167.8667 77° East 540 621 35,000  Level Anchorage Center
10:59AM 66.6634 -168.4831 76° East  Level FlightAware Approximate
10:59AM 66.7333 -167.4833 77° East 550 633 35,000  Level Anchorage Center
11:00AM 66.6950 -168.1458 77° East  Level FlightAware Approximate
11:00AM 66.7667 -167.1000 77° East 550 633 35,000  Level Anchorage Center
11:01AM 66.7258 -167.8077 77° East  Level FlightAware Approximate
11:01AM 66.7833 -166.7333 83° East 540 621 35,000  Level Anchorage Center
11:02AM 66.7560 -167.4687 77° East  Level FlightAware Approximate
11:02AM 66.8167 -166.3500 77° East 540 621 35,000  Level Anchorage Center
11:03AM 66.8333 -166.0167 83° East 550 633 35,000  Level Anchorage Center
11:04AM 66.8667 -165.6333 77° East 540 621 35,000  Level Anchorage Center
11:05AM 66.8833 -165.2667 83° East 540 621 35,000  Level Anchorage Center
11:06AM 66.9167 -164.8833 77° East 530 610 35,000  Level Anchorage Center
11:07AM 66.9333 -164.5167 83° East 530 610 35,000  Level Anchorage Center
11:08AM 66.9500 -164.1333 83° East 540 621 35,000  Level Anchorage Center
11:09AM 66.9667 -163.7500 83° East 530 610 35,000  Level Anchorage Center
11:10AM 67.0000 -163.3667 77° East 540 621 35,000  Level Anchorage Center
11:11AM 67.0167 -162.9833 83° East 540 621 35,000  Level Anchorage Center
11:12AM 67.0333 -162.6000 83° East 540 621 35,000  Level Anchorage Center
11:13AM 67.0500 -162.2167 83° East 540 621 35,000  Level Anchorage Center
11:14AM 67.0667 -161.8167 84° East 540 621 35,000  Level Anchorage Center
11:15AM 67.0833 -161.4333 83° East 540 621 35,000  Level Anchorage Center
11:16AM 67.0833 -161.0500 90° East 540 621 35,000  Level Anchorage Center
11:17AM 67.1000 -160.6667 83° East 530 610 35,000  Level Anchorage Center
11:18AM 67.1167 -160.2833 83° East 530 610 35,000  Level Anchorage Center
11:19AM 67.1333 -159.9167 83° East 530 610 35,000  Level Anchorage Center
11:20AM 67.1333 -159.5333 90° East 530 610 35,000  Level Anchorage Center
11:21AM 67.1500 -159.1667 83° East 520 598 35,000  Level Anchorage Center
11:22AM 67.1500 -158.8000 90° East 520 598 35,000  Level Anchorage Center
11:23AM 67.1667 -158.4167 83° East 520 598 35,000  Level Anchorage Center
11:24AM 67.1667 -158.0500 90° East 520 598 35,000  Level Anchorage Center
11:25AM 67.1667 -157.6833 90° East 520 598 35,000  Level Anchorage Center
11:26AM 67.1833 -157.3000 83° East 510 587 35,000  Level Anchorage Center
11:27AM 67.1833 -156.9333 90° East 520 598 35,000  Level Anchorage Center
11:28AM 67.1833 -156.5667 90° East 510 587 35,000  Level Anchorage Center
11:29AM 67.1833 -156.1833 90° East 520 598 35,000  Level Anchorage Center
11:30AM 67.1833 -155.8000 90° East 520 598 35,000  Level Anchorage Center
11:31AM 67.1833 -155.4333 90° East 520 598 35,000  Level Anchorage Center
11:32AM 67.1833 -155.0500 90° East 520 598 35,000  Level Anchorage Center
11:33AM 67.1833 -154.6833 90° East 520 598 35,000  Level Anchorage Center
11:34AM 67.1833 -154.3000 90° East 520 598 35,000  Level Anchorage Center
11:35AM 67.1833 -153.9333 90° East 520 598 35,000  Level Anchorage Center
11:36AM 67.1667 -153.5500 96° East 520 598 35,000  Level Anchorage Center
11:37AM 67.1667 -153.1833 90° East 520 598 35,000  Level Anchorage Center
11:38AM 67.1667 -152.8167 90° East 510 587 35,000  Level Anchorage Center
11:39AM 67.1500 -152.4500 97° East 520 598 35,000  Level Anchorage Center
11:40AM 67.1500 -152.0833 90° East 510 587 35,000  Level Anchorage Center
11:41AM 67.1333 -151.7167 97° East 510 587 35,000  Level Anchorage Center
11:42AM 67.1333 -151.3500 90° East 510 587 35,000  Level Anchorage Center
11:43AM 67.1167 -150.9833 97° East 500 575 35,000  Level Anchorage Center
11:44AM 67.1167 -150.7000 90° East 510 587 35,000  Level Anchorage Center
11:45AM 67.1000 -150.3167 96° East 520 598 35,000  Level Anchorage Center
11:46AM 67.0833 -149.9667 97° East 500 575 35,000  Level Anchorage Center
11:47AM 67.0667 -149.5333 95° East 510 587 35,000  Level Anchorage Center
11:48AM 67.0500 -149.1833 97° East 500 575 35,000  Level Anchorage Center
11:49AM 67.0333 -148.8333 97° East 500 575 35,000  Level Anchorage Center
11:50AM 67.0333 -148.4667 90° East 500 575 35,000  Level Anchorage Center
11:51AM 67.0167 -148.1000 96° East 510 587 35,000  Level Anchorage Center
11:52AM 67.0000 -147.7500 97° East 500 575 35,000  Level Anchorage Center
11:53AM 66.9667 -147.3833 103° East 520 598 35,000  Level Anchorage Center
11:54AM 66.9500 -147.0333 97° East 510 587 35,000  Level Anchorage Center
11:55AM 66.9333 -146.6667 96° East 510 587 35,000  Level Anchorage Center
11:56AM 66.9167 -146.3167 97° East 520 598 35,000  Level Anchorage Center
11:57AM 66.8833 -145.9500 103° East 510 587 35,000  Level Anchorage Center
11:58AM 66.8667 -145.6667 98° East 510 587 35,000  Level Anchorage Center
11:59AM 66.8500 -145.3000 96° East 510 587 35,000  Level Anchorage Center
12:00PM 66.8333 -144.9500 97° East 510 587 35,000  Level Anchorage Center
12:01PM 66.8000 -144.6000 103° East 500 575 35,000  Level Anchorage Center
12:02PM 66.7833 -144.2333 96° East 510 587 35,000  Level Anchorage Center
12:03PM 66.7500 -143.8833 103° East 510 587 35,000  Level Anchorage Center
12:04PM 66.7333 -143.5333 97° East 500 575 35,000  Level Anchorage Center
12:05PM 66.7000 -143.2000 104° East 510 587 35,000  Level Anchorage Center
12:06PM 66.6667 -142.8500 103° East 510 587 35,000  Level Anchorage Center
12:07PM 66.6500 -142.5000 97° East 500 575 35,000  Level Anchorage Center
12:08PM 66.6167 -142.1500 103° East 510 587 35,000  Level Anchorage Center
12:09PM 66.5833 -141.8167 104° East 500 575 35,000  Level Anchorage Center
12:10PM 66.5500 -141.4667 103° East 510 587 35,000  Level Anchorage Center
12:11PM 66.5167 -141.1167 103° East 510 587 35,000  Level Anchorage Center
12:13PM 66.4345 -140.5424 105° East  Level FlightAware Approximate
12:20PM 66.1581 -138.2508 106° East  Level FlightAware Approximate
12:21PM 66.1160 -137.9276 108° East  Level FlightAware Approximate
12:22PM 66.0731 -137.6055 108° East  Level FlightAware Approximate
12:23PM 66.0296 -137.2844 108° East  Level FlightAware Approximate
12:24PM 65.9854 -136.9645 109° East  Level FlightAware Approximate
12:25PM 65.9405 -136.6456 109° East  Level FlightAware Approximate
12:26PM 65.8950 -136.3279 109° East  Level FlightAware Approximate
12:27PM 65.8489 -136.0114 109° East  Level FlightAware Approximate
12:28PM 65.8020 -135.6960 110° East  Level FlightAware Approximate
12:29PM 65.7546 -135.3817 110° East  Level FlightAware Approximate
12:30PM 65.7065 -135.0686 110° East  Level FlightAware Approximate
12:31PM 65.6577 -134.7566 111° Southeast  Level FlightAware Approximate
12:32PM 65.6084 -134.4459 111° Southeast  Level FlightAware Approximate
12:33PM 65.5583 -134.1363 111° Southeast  Level FlightAware Approximate
12:34PM 65.5077 -133.8279 112° Southeast  Level FlightAware Approximate
12:35PM 65.4564 -133.5208 112° Southeast  Level FlightAware Approximate
12:36PM 65.4045 -133.2148 112° Southeast  Level FlightAware Approximate
12:37PM 65.3520 -132.9100 112° Southeast  Level FlightAware Approximate
12:38PM 65.2989 -132.6065 113° Southeast  Level FlightAware Approximate
12:39PM 65.2452 -132.3042 113° Southeast  Level FlightAware Approximate
12:40PM 65.1909 -132.0032 113° Southeast  Level FlightAware Approximate
12:41PM 65.1359 -131.7033 113° Southeast  Level FlightAware Approximate
12:42PM 65.0804 -131.4048 114° Southeast  Level FlightAware Approximate
12:43PM 65.0243 -131.1074 114° Southeast  Level FlightAware Approximate
12:44PM 64.9676 -130.8114 114° Southeast  Level FlightAware Approximate
12:45PM 64.9103 -130.5165 115° Southeast  Level FlightAware Approximate
12:46PM 64.8524 -130.2230 115° Southeast  Level FlightAware Approximate
12:47PM 64.7940 -129.9307 115° Southeast  Level FlightAware Approximate
12:48PM 64.7349 -129.6397 115° Southeast  Level FlightAware Approximate
12:49PM 64.6753 -129.3499 116° Southeast  Level FlightAware Approximate
12:50PM 64.6152 -129.0615 116° Southeast  Level FlightAware Approximate
12:51PM 64.5545 -128.7743 116° Southeast  Level FlightAware Approximate
12:52PM 64.4932 -128.4884 116° Southeast  Level FlightAware Approximate
12:53PM 64.4314 -128.2038 117° Southeast  Level FlightAware Approximate
12:54PM 64.3690 -127.9204 117° Southeast  Level FlightAware Approximate
12:55PM 64.3061 -127.6384 117° Southeast  Level FlightAware Approximate
12:56PM 64.2427 -127.3576 117° Southeast  Level FlightAware Approximate
12:57PM 64.1787 -127.0782 118° Southeast  Level FlightAware Approximate
12:58PM 64.1142 -126.8000 118° Southeast  Level FlightAware Approximate
12:59PM 64.0491 -126.5231 118° Southeast  Level FlightAware Approximate
01:00PM 63.9835 -126.2475 118° Southeast  Level FlightAware Approximate
01:01PM 63.9174 -125.9732 119° Southeast  Level FlightAware Approximate
01:02PM 63.8508 -125.7002 119° Southeast  Level FlightAware Approximate
01:03PM 63.7837 -125.4285 119° Southeast  Level FlightAware Approximate
01:04PM 63.7161 -125.1581 119° Southeast  Level FlightAware Approximate
01:05PM 63.6480 -124.8890 120° Southeast  Level FlightAware Approximate
01:06PM 63.5793 -124.6212 120° Southeast  Level FlightAware Approximate
01:07PM 63.5102 -124.3547 120° Southeast  Level FlightAware Approximate
01:08PM 63.4406 -124.0894 120° Southeast  Level FlightAware Approximate
01:09PM 63.3705 -123.8255 121° Southeast  Level FlightAware Approximate
01:10PM 63.2999 -123.5628 121° Southeast  Level FlightAware Approximate
01:11PM 63.2288 -123.3015 121° Southeast  Level FlightAware Approximate
01:12PM 63.1573 -123.0414 121° Southeast  Level FlightAware Approximate
01:12PM 62.9167 -122.7167 122° Southeast 560 644 37,000  Level Edmonton Center
01:13PM 63.0852 -122.7826 122° Southeast  Level FlightAware Approximate
01:13PM 62.8333 -122.4833 128° Southeast 520 598 37,000  Level Edmonton Center
01:14PM 63.0127 -122.5251 122° Southeast  Level FlightAware Approximate
01:14PM 62.7333 -122.2000 128° Southeast 510 587 37,000  Level Edmonton Center
01:15PM 62.9398 -122.2689 122° Southeast  Level FlightAware Approximate
01:15PM 62.6500 -121.9500 126° Southeast 520 598 37,000  Level Edmonton Center
01:16PM 62.8664 -122.0139 122° Southeast  Level FlightAware Approximate
01:16PM 62.5667 -121.6833 124° Southeast 510 587 37,000  Level Edmonton Center
01:17PM 62.7925 -121.7602 122° Southeast  Level FlightAware Approximate
01:17PM 62.4833 -121.4333 126° Southeast 510 587 37,000  Level Edmonton Center
01:18PM 62.4000 -121.2167 130° Southeast 510 587 37,000  Level Edmonton Center
01:19PM 62.3167 -120.9333 122° Southeast 510 587 37,000  Level Edmonton Center
01:20PM 62.2167 -120.7000 133° Southeast 510 587 37,000  Level Edmonton Center
01:21PM 62.1333 -120.4667 127° Southeast 510 587 37,000  Level Edmonton Center
01:22PM 62.0500 -120.2333 127° Southeast 510 587 37,000  Level Edmonton Center
01:23PM 61.9667 -119.9833 125° Southeast 510 587 37,000  Level Edmonton Center
01:24PM 61.9000 -119.6833 115° Southeast 520 598 37,000  Level Edmonton Center
01:25PM 61.8167 -119.3833 120° Southeast 520 598 37,000  Level Edmonton Center
01:26PM 61.7667 -119.1167 112° Southeast 520 598 37,000  Level Edmonton Center
01:27PM 61.6833 -118.8500 123° Southeast 520 598 37,000  Level Edmonton Center
01:28PM 61.6333 -118.5667 110° East 520 598 37,000  Level Edmonton Center
01:29PM 61.5500 -118.3167 125° Southeast 520 598 37,000  Level Edmonton Center
01:30PM 61.5000 -118.0500 111° Southeast 520 598 37,000  Level Edmonton Center
01:31PM 61.4167 -117.7500 120° Southeast 520 598 37,000  Level Edmonton Center
01:32PM 61.3333 -117.5167 127° Southeast 530 610 37,000  Level Edmonton Center
01:33PM 61.2833 -117.2333 110° East 520 598 37,000  Level Edmonton Center
01:34PM 61.2000 -116.9500 121° Southeast 520 598 37,000  Level Edmonton Center
01:35PM 61.1333 -116.7167 121° Southeast 520 598 37,000  Level Edmonton Center
01:36PM 61.0500 -116.4333 121° Southeast 520 598 37,000  Level Edmonton Center
01:37PM 60.9667 -116.1667 123° Southeast 520 598 37,000  Level Edmonton Center
01:38PM 60.9167 -115.8833 110° East 520 598 37,000  Level Edmonton Center
01:39PM 60.8333 -115.6500 126° Southeast 520 598 37,000  Level Edmonton Center
01:40PM 60.7667 -115.3833 117° Southeast 520 598 37,000  Level Edmonton Center
01:41PM 60.6833 -115.1167 122° Southeast 530 610 37,000  Level Edmonton Center
01:42PM 60.6167 -114.8833 120° Southeast 520 598 37,000  Level Edmonton Center
01:43PM 60.5333 -114.6167 122° Southeast 530 610 37,000  Level Edmonton Center
01:44PM 60.4500 -114.3500 122° Southeast 520 598 37,000  Level Edmonton Center
01:45PM 60.3833 -114.1167 120° Southeast 530 610 37,000  Level Edmonton Center
01:46PM 60.2833 -113.8500 127° Southeast 520 598 37,000  Level Edmonton Center
01:47PM 60.2000 -113.5833 122° Southeast 530 610 37,000  Level Edmonton Center
01:48PM 60.1333 -113.3333 118° Southeast 520 598 37,000  Level Edmonton Center
01:49PM 60.0500 -113.1000 126° Southeast 520 598 37,000  Level Edmonton Center
01:50PM 59.9833 -112.8500 118° Southeast 520 598 37,000  Level Edmonton Center
01:51PM 59.9000 -112.5833 122° Southeast 520 598 37,000  Level Edmonton Center
01:52PM 59.8000 -112.3667 132° Southeast 530 610 37,000  Level Edmonton Center
01:53PM 59.7333 -112.1000 116° Southeast 530 610 37,000  Level Edmonton Center
01:54PM 59.6500 -111.8500 123° Southeast 540 621 37,000  Level Edmonton Center
01:55PM 59.5500 -111.6333 132° Southeast 530 610 37,000  Level Edmonton Center
01:56PM 59.4667 -111.3833 123° Southeast 520 598 37,000  Level Edmonton Center
01:57PM 59.3833 -111.1333 123° Southeast 530 610 37,000  Level Edmonton Center
01:58PM 59.3000 -110.8833 123° Southeast 530 610 37,000  Level Edmonton Center
01:59PM 59.2000 -110.6333 128° Southeast 530 610 37,000  Level Edmonton Center
02:00PM 59.1333 -110.3833 117° Southeast 530 610 37,000  Level Edmonton Center
02:01PM 59.0333 -110.1667 132° Southeast 530 610 37,000  Level Edmonton Center
02:02PM 58.9500 -109.9333 125° Southeast 530 610 37,000  Level Edmonton Center
02:03PM 58.8500 -109.7167 132° Southeast 530 610 37,000  Level Edmonton Center
02:04PM 58.7667 -109.5167 129° Southeast 530 610 37,000  Level Edmonton Center
02:05PM 58.6500 -109.3000 136° Southeast 520 598 37,000  Level Edmonton Center
02:06PM 58.5500 -109.1000 134° Southeast 520 598 37,000  Level Edmonton Center
02:07PM 58.4500 -108.8833 131° Southeast 520 598 37,000  Level Edmonton Center
02:08PM 58.3667 -108.6833 128° Southeast 520 598 37,000  Level Edmonton Center
02:09PM 58.2667 -108.4833 134° Southeast 520 598 37,000  Level Edmonton Center
02:10PM 58.1667 -108.2667 131° Southeast 520 598 37,000  Level Edmonton Center
02:11PM 58.0500 -108.0667 138° Southeast 520 598 37,000  Level Edmonton Center
02:12PM 57.9500 -107.8667 133° Southeast 520 598 37,000  Level Edmonton Center
02:13PM 57.8500 -107.6667 133° Southeast 520 598 37,000  Level Edmonton Center
02:14PM 57.7500 -107.4667 133° Southeast 520 598 37,000  Level Edmonton Center
02:15PM 57.6500 -107.2667 133° Southeast 520 598 37,000  Level Edmonton Center
02:16PM 57.5500 -107.0833 135° Southeast 520 598 37,000  Level Edmonton Center
02:17PM 57.4500 -106.8833 133° Southeast 520 598 37,000  Level Edmonton Center
02:18PM 57.3500 -106.6833 133° Southeast 520 598 37,000  Level Edmonton Center
02:19PM 57.2333 -106.5000 140° Southeast 520 598 37,000  Level Edmonton Center
02:20PM 57.1333 -106.3000 133° Southeast 530 610 37,000  Level Edmonton Center
02:21PM 57.0333 -106.1167 135° Southeast 520 598 37,000  Level Edmonton Center
02:22PM 56.9167 -105.9167 137° Southeast 520 598 37,000  Level Edmonton Center
02:23PM 56.8167 -105.7333 135° Southeast 520 598 37,000  Level Edmonton Center
02:24PM 56.7167 -105.5500 135° Southeast 520 598 37,000  Level Edmonton Center
02:25PM 56.6000 -105.3667 139° Southeast 520 598 37,000  Level Edmonton Center
02:26PM 56.5000 -105.1500 130° Southeast 520 598 37,000  Level Edmonton Center
02:27PM 56.4000 -105.0000 140° Southeast 520 598 37,000  Level Edmonton Center
02:28PM 56.3000 -104.8167 134° Southeast 530 610 37,000  Level Edmonton Center
02:29PM 56.2000 -104.6333 134° Southeast 530 610 37,000  Level Edmonton Center
02:30PM 56.0667 -104.4167 138° Southeast 530 610 37,000  Level Edmonton Center
02:31PM 55.9667 -104.2333 134° Southeast 530 610 37,000  Level Edmonton Center
02:32PM 55.8500 -104.0500 139° Southeast 530 610 37,000  Level Edmonton Center
02:33PM 55.7500 -103.8833 137° Southeast 530 610 37,000  Level Edmonton Center
02:34PM 55.6500 -103.7000 134° Southeast 530 610 37,000  Level Edmonton Center
02:35PM 55.5167 -103.5167 142° Southeast 530 610 37,000  Level Edmonton Center
02:36PM 55.4167 -103.3500 137° Southeast 530 610 37,000  Level Edmonton Center
02:37PM 55.3000 -103.1500 136° Southeast 530 610 37,000  Level Edmonton Center
02:38PM 55.2000 -102.9667 134° Southeast 540 621 37,000  Level Edmonton Center
02:39PM 55.0833 -102.8000 141° Southeast 540 621 37,000  Level Edmonton Center
02:40PM 54.9667 -102.6333 141° Southeast 540 621 37,000  Level Edmonton Center
02:41PM 54.8667 -102.4333 131° Southeast 540 621 37,000  Level Edmonton Center
02:42PM 54.7500 -102.2667 140° Southeast 540 621 37,000  Level Edmonton Center
02:43PM 54.6333 -102.1000 140° Southeast 540 621 37,000  Level Edmonton Center
02:44PM 54.5167 -101.9333 140° Southeast 540 621 37,000  Level Edmonton Center
02:45PM 54.4000 -101.7333 135° Southeast 540 621 37,000  Level Edmonton Center
02:46PM 54.3000 -101.5667 136° Southeast 540 621 37,000  Level Edmonton Center
02:47PM 54.1667 -101.4000 144° Southeast 540 621 37,000  Level Edmonton Center
02:48PM 54.0500 -101.2167 137° Southeast 540 621 37,000  Level Edmonton Center
02:49PM 53.9333 -101.0500 140° Southeast 540 621 37,000  Level Edmonton Center
02:50PM 53.8333 -100.9667 154° Southeast 540 621 37,000  Level Winnipeg Center
02:51PM 53.6833 -100.8167 149° Southeast 550 633 37,000  Level Winnipeg Center
02:52PM 53.5500 -100.6833 149° Southeast 540 621 37,000  Level Winnipeg Center
02:53PM 53.4333 -100.5667 149° Southeast 540 621 37,000  Level Winnipeg Center
02:54PM 53.3167 -100.4167 142° Southeast 540 621 37,000  Level Winnipeg Center
02:55PM 53.1833 -100.2833 149° Southeast 540 621 37,000  Level Winnipeg Center
02:56PM 53.0500 -100.1667 152° Southeast 530 610 37,000  Level Winnipeg Center
03:01PM 52.3370 -99.4390 152° Southeast 543 625 37,000  Level FlightAware
03:02PM 52.2370 -99.3410 149° Southeast 544 626 37,000  Level FlightAware
03:03PM 52.1450 -99.2510 149° Southeast 544 626 37,000  Level FlightAware
03:04PM 52.0100 -99.1230 150° Southeast 543 625 37,000  Level FlightAware
03:05PM 51.9370 -99.0520 149° Southeast 543 625 37,000  Level FlightAware
03:05PM 51.8640 -98.9810 149° Southeast 543 625 37,000  Level FlightAware
03:06PM 51.7910 -98.9090 149° Southeast 543 625 37,000  Level FlightAware
03:07PM 51.6360 -98.7700 151° Southeast 540 621 37,000  Level FlightAware
03:08PM 51.5470 -98.6870 150° Southeast 540 621 37,000  Level FlightAware
03:08PM 51.4550 -98.6020 150° Southeast 540 621 37,000  Level FlightAware
03:09PM 51.3760 -98.5290 150° Southeast 540 621 37,000  Level FlightAware
03:10PM 51.2840 -98.4440 150° Southeast 540 621 37,000  Level FlightAware
03:10PM 51.2050 -98.3720 150° Southeast 540 621 37,000  Level FlightAware
03:11PM 51.0980 -98.2740 150° Southeast 542 624 37,000  Level FlightAware
03:12PM 51.0010 -98.1860 150° Southeast 541 623 37,000  Level FlightAware
03:12PM 50.9170 -98.1100 150° Southeast 542 624 37,000  Level FlightAware
03:13PM 50.8270 -98.0290 150° Southeast 541 623 37,000  Level FlightAware
03:14PM 50.7270 -97.9390 150° Southeast 541 623 37,000  Level FlightAware
03:15PM 50.6320 -97.8540 150° Southeast 541 623 37,000  Level FlightAware
03:15PM 50.5450 -97.7770 151° Southeast 541 623 37,000  Level FlightAware
03:16PM 50.4240 -97.6710 151° Southeast 540 621 37,000  Level FlightAware
03:17PM 50.3290 -97.5880 151° Southeast 539 620 37,000  Level FlightAware
03:17PM 50.2550 -97.5210 150° Southeast 539 620 37,000  Level FlightAware
03:18PM 50.1530 -97.4340 151° Southeast 538 619 37,000  Level FlightAware
03:19PM 50.0590 -97.3520 151° Southeast 537 618 37,000  Level FlightAware
03:20PM 49.9730 -97.2780 151° Southeast 536 617 37,000  Level FlightAware
03:20PM 49.8770 -97.1900 149° Southeast 534 615 37,000  Level FlightAware
03:21PM 49.8130 -97.1280 148° Southeast 533 613 37,000  Level FlightAware
03:22PM 49.7110 -97.0290 148° Southeast 531 611 37,000  Level FlightAware
03:22PM 49.6370 -96.9570 148° Southeast 530 610 37,000  Level FlightAware
03:23PM 49.5150 -96.8380 148° Southeast 531 611 37,000  Level FlightAware
03:24PM 49.4270 -96.7510 147° Southeast 531 611 37,000  Level FlightAware
03:25PM 49.3570 -96.6810 147° Southeast 531 611 37,000  Level FlightAware
03:25PM 49.2870 -96.6110 147° Southeast 531 611 37,000  Level FlightAware
03:26PM 49.1610 -96.5050 151° Southeast 527 606 37,000  Level FlightAware
03:27PM 49.0630 -96.4130 148° Southeast 526 605 37,000  Level FlightAware
03:28PM 48.9800 -96.3350 148° Southeast 525 604 37,000  Level FlightAware
03:28PM 48.8890 -96.2510 149° Southeast 525 604 37,000  Level FlightAware
03:29PM 48.8060 -96.1740 149° Southeast 525 604 37,000  Level FlightAware
03:30PM 48.7110 -96.0860 149° Southeast 524 603 37,000  Level FlightAware
03:30PM 48.6280 -96.0100 149° Southeast 524 603 37,000  Level FlightAware
03:31PM 48.5460 -95.9360 149° Southeast 523 602 37,000  Level FlightAware
03:32PM 48.4550 -95.8530 149° Southeast 522 601 37,000  Level FlightAware
03:32PM 48.3720 -95.7770 149° Southeast 522 601 37,000  Level FlightAware
03:33PM 48.2770 -95.6910 149° Southeast 521 600 37,000  Level FlightAware
03:34PM 48.1950 -95.6170 149° Southeast 521 600 37,000  Level FlightAware
03:34PM 48.1300 -95.5590 149° Southeast 521 600 37,000  Level FlightAware
03:35PM 48.0250 -95.4650 149° Southeast 521 600 37,000  Level FlightAware
03:36PM 47.9380 -95.3880 149° Southeast 519 597 37,000  Level FlightAware
03:37PM 47.8230 -95.2860 149° Southeast 516 594 37,000  Level FlightAware
03:38PM 47.7520 -95.2230 149° Southeast 515 593 37,000  Level FlightAware
03:38PM 47.6830 -95.1610 149° Southeast 515 593 37,000  Level FlightAware
03:39PM 47.5960 -95.0840 149° Southeast 515 593 37,000  Level FlightAware
03:40PM 47.5270 -95.0220 149° Southeast 515 593 37,000  Level FlightAware
03:40PM 47.4570 -94.9600 149° Southeast 515 593 37,000  Level FlightAware
03:41PM 47.3100 -94.8390 151° Southeast 505 581 37,000  Level FlightAware
03:42PM 47.2360 -94.7740 149° Southeast 505 581 37,000  Level FlightAware
03:43PM 47.1370 -94.6900 150° Southeast 502 578 37,000  Level FlightAware
03:43PM 47.0580 -94.6220 150° Southeast 502 578 37,000  Level FlightAware
03:44PM 46.9770 -94.5530 150° Southeast 500 575 37,000  Level FlightAware
03:45PM 46.8860 -94.4760 150° Southeast 501 577 37,000  Level FlightAware
03:45PM 46.8050 -94.4080 150° Southeast 502 578 37,000  Level FlightAware
03:46PM 46.7220 -94.3380 150° Southeast 502 578 37,000  Level FlightAware
03:47PM 46.6220 -94.2540 150° Southeast 503 579 37,000  Level FlightAware
03:48PM 46.5250 -94.1720 150° Southeast 506 582 37,000  Level FlightAware
03:48PM 46.4340 -94.0970 150° Southeast 507 583 37,000  Level FlightAware
03:49PM 46.3520 -94.0330 152° Southeast 507 583 37,000  Level FlightAware
03:50PM 46.2700 -93.9820 157° South 506 582 37,000  Level FlightAware
03:50PM 46.1710 -93.9270 159° South 506 582 37,000  Level FlightAware
03:51PM 46.1000 -93.8880 159° South 506 582 37,000  Level FlightAware
03:52PM 46.0260 -93.8470 159° South 506 582 37,000  Level FlightAware
03:53PM 45.9330 -93.7960 159° South 506 582 37,000  Level FlightAware
03:53PM 45.8090 -93.7300 160° South 506 582 37,000  Level FlightAware
03:54PM 45.7060 -93.6740 159° South 504 580 37,000  Level FlightAware
03:55PM 45.6400 -93.6370 159° South 504 580 37,000  Level FlightAware
03:55PM 45.5660 -93.5970 159° South 504 580 37,000  Level FlightAware
03:56PM 45.4730 -93.5460 159° South 504 580 37,000  Level FlightAware
03:57PM 45.3990 -93.5050 159° South 504 580 37,000  Level FlightAware
03:57PM 45.3250 -93.4650 159° South 504 580 37,000  Level FlightAware
03:58PM 45.2510 -93.4250 159° South 504 580 37,000  Level FlightAware
03:59PM 45.1770 -93.3840 159° South 504 580 37,000  Level FlightAware
03:59PM 45.0880 -93.2350 130° Southeast 510 587 37,000  Level FlightAware
04:00PM 45.0400 -93.1200 121° Southeast 510 587 37,000  Level FlightAware
04:00PM 44.9870 -92.9930 121° Southeast 510 587 37,000  Level FlightAware
04:01PM 44.9370 -92.8740 121° Southeast 512 589 37,000  Level FlightAware
04:02PM 44.8800 -92.7490 123° Southeast 512 589 37,000  Level FlightAware
04:03PM 44.8300 -92.6420 123° Southeast 512 589 37,000  Level FlightAware
04:04PM 44.7500 -92.4750 124° Southeast 513 590 37,000  Level FlightAware
04:04PM 44.6870 -92.3430 124° Southeast 514 592 37,000  Level FlightAware
04:05PM 44.6410 -92.2490 124° Southeast 514 592 37,000  Level FlightAware
04:06PM 44.5590 -92.0840 125° Southeast 516 594 37,000  Level FlightAware
04:06PM 44.5120 -91.9900 125° Southeast 515 593 37,000  Level FlightAware
04:07PM 44.4570 -91.8750 124° Southeast 515 593 37,000  Level FlightAware
04:08PM 44.3900 -91.7430 125° Southeast 515 593 37,000  Level FlightAware
04:09PM 44.3270 -91.6150 124° Southeast 515 593 37,000 -540 Level FlightAware
04:10PM 44.2670 -91.4960 125° Southeast 515 593 36,200 -960 Descending FlightAware
04:10PM 44.2010 -91.3660 125° Southeast 511 588 35,600 -960 Descending FlightAware
04:11PM 44.1460 -91.2560 125° Southeast 506 582 34,900 -1,020 Descending FlightAware
04:12PM 44.0930 -91.1520 125° Southeast 500 575 34,300 -780 Descending FlightAware
04:12PM 44.0380 -91.0430 125° Southeast 500 575 33,800 -1,440 Descending FlightAware
04:13PM 43.9780 -90.9270 126° Southeast 502 578 32,300 -1,980 Descending FlightAware
04:14PM 43.9310 -90.8350 125° Southeast 497 572 31,200 -1,500 Descending FlightAware
04:14PM 43.8720 -90.7190 125° Southeast 501 577 30,300 -1,140 Descending FlightAware
04:15PM 43.8140 -90.6070 126° Southeast 504 580 29,600 -960 Descending FlightAware
04:16PM 43.7560 -90.4960 126° Southeast 500 575 28,900 -1,020 Descending FlightAware
04:17PM 43.6950 -90.3780 126° Southeast 495 570 28,200 -1,020 Descending FlightAware
04:17PM 43.6460 -90.2840 126° Southeast 493 567 27,600 -900 Descending FlightAware
04:18PM 43.5920 -90.1800 126° Southeast 488 562 27,000 -960 Descending FlightAware
04:19PM 43.5310 -90.0650 126° Southeast 482 555 26,300 -960 Descending FlightAware
04:19PM 43.4740 -89.9560 126° Southeast 472 543 25,600 -960 Descending FlightAware
04:20PM 43.4240 -89.8620 126° Southeast 471 542 25,000 -900 Descending FlightAware
04:21PM 43.3730 -89.7650 126° Southeast 465 535 24,400 -1,200 Descending FlightAware
04:21PM 43.3170 -89.6620 127° Southeast 465 535 23,300 -1,800 Descending FlightAware
04:22PM 43.2630 -89.5600 126° Southeast 458 527 21,900 -2,100 Descending FlightAware
04:23PM 43.2140 -89.4680 126° Southeast 450 518 20,500 -1,980 Descending FlightAware
04:24PM 43.1590 -89.3710 128° Southeast 437 503 19,100 -1,920 Descending FlightAware
04:24PM 43.0870 -89.3170 151° Southeast 416 479 17,800 -2,160 Descending FlightAware
04:25PM 43.0060 -89.2830 163° South 412 474 16,100 -1,980 Descending FlightAware
04:26PM 42.9340 -89.2550 164° South 399 459 15,000 -1,740 Descending FlightAware
04:26PM 42.8630 -89.2270 164° South 388 447 13,800 -1,560 Descending FlightAware
04:27PM 42.7900 -89.1950 162° South 378 435 12,800 -780 Descending FlightAware
04:28PM 42.7360 -89.1330 140° Southeast 378 435 12,700 -120 Descending FlightAware
04:28PM 42.6940 -89.0590 128° Southeast 379 436 12,700  Level FlightAware
04:29PM 42.6450 -88.9700 127° Southeast 379 436 12,700  Level FlightAware
04:30PM 42.5960 -88.8840 128° Southeast 376 433 12,700 -720 Level FlightAware
04:31PM 42.5560 -88.8130 127° Southeast 367 422 11,700 -1,320 Descending FlightAware
04:31PM 42.5170 -88.7430 127° Southeast 345 397 11,000 -1,020 Descending FlightAware
04:32PM 42.4740 -88.6700 129° Southeast 324 373 10,300 -780 Descending FlightAware
04:33PM 42.4360 -88.6050 128° Southeast 307 353 9,900 -780 Descending FlightAware
04:33PM 42.4120 -88.5630 128° Southeast 297 342 9,400 -1,140 Descending FlightAware
04:34PM 42.3860 -88.5170 127° Southeast 287 330 8,800 -960 Descending FlightAware
04:34PM 42.3740 -88.4950 126° Southeast 288 331 8,700 -180 Descending FlightAware
04:34PM 42.3560 -88.4580 123° Southeast 289 333 8,700 -240 Level FlightAware
04:35PM 42.3330 -88.4130 125° Southeast 289 333 8,500 -720 Descending FlightAware
04:35PM 42.3220 -88.3890 122° Southeast 284 327 8,200 -1,200 Descending FlightAware
04:35PM 42.3050 -88.3540 123° Southeast 283 326 7,700 -1,440 Descending FlightAware
04:36PM 42.2830 -88.3100 124° Southeast 282 325 6,900 -1,140 Descending FlightAware
04:36PM 42.2630 -88.2720 125° Southeast 282 325 6,700 -240 Descending FlightAware
04:37PM 42.2460 -88.2360 123° Southeast 282 325 6,700 -120 Level FlightAware
04:37PM 42.2240 -88.1960 127° Southeast 278 320 6,600 -900 Descending FlightAware
04:38PM 42.1940 -88.1620 140° Southeast 273 314 5,800 -1,920 Descending FlightAware
04:38PM 42.1780 -88.1460 143° Southeast 270 311 5,200 -1,800 Descending FlightAware
04:38PM 42.1560 -88.1200 139° Southeast 253 291 4,600 -1,320 Descending FlightAware
04:39PM 42.1290 -88.0900 141° Southeast 246 283 4,000 -1,380 Descending FlightAware
04:39PM 42.1160 -88.0740 138° Southeast 247 284 3,600 -1,500 Descending FlightAware
04:40PM 42.0900 -88.0460 141° Southeast 247 284 2,900 -1,200 Descending FlightAware
04:40PM 42.0690 -88.0220 140° Southeast 220 253 2,500 -1,200 Descending FlightAware
04:41PM 42.0490 -87.9980 138° Southeast 177 204 1,800 -1,020 Descending FlightAware
04:41PM 42.0350 -87.9830 141° Southeast 147 169 1,600 -600 Descending FlightAware
04:41PM 42.0280 -87.9750 140° Southeast 153 176 1,400 -960 Descending FlightAware
04:42PM 42.0100 -87.9560 142° Southeast 155 178 900 -900 Descending FlightAware
04:42PM 41.9970 -87.9400 138° Southeast 156 180 600 -720 Descending FlightAware